createdAt,value
2023-05-02T00:01:22.339Z,18.30
2023-05-02T00:03:56.228Z,17.40
2023-05-02T00:06:29.694Z,16.87
2023-05-02T00:09:05.179Z,16.63
2023-05-02T00:11:38.685Z,16.80
2023-05-02T00:14:12.613Z,15.03
2023-05-02T00:16:46.202Z,15.03
2023-05-02T00:19:19.523Z,14.47
2023-05-02T00:21:53.652Z,14.20
2023-05-02T00:24:29.129Z,13.90
2023-05-02T00:27:03.024Z,13.10
2023-05-02T00:29:36.884Z,13.17
2023-05-02T00:32:11.796Z,13.80
2023-05-02T00:34:46.407Z,13.63
2023-05-02T00:37:20.044Z,13.70
2023-05-02T00:39:54.993Z,14.03
2023-05-02T00:42:28.179Z,14.27
2023-05-02T00:45:01.165Z,15.10
2023-05-02T00:47:34.728Z,15.23
2023-05-02T00:50:08.965Z,14.60
2023-05-02T00:52:42.854Z,14.63
2023-05-02T00:55:18.683Z,15.13
2023-05-02T00:57:52.621Z,16.63
2023-05-02T01:00:28.405Z,15.73
2023-05-02T01:03:14.668Z,16.07
2023-05-02T01:05:59.177Z,16.73
2023-05-02T01:08:40.044Z,14.40
2023-05-02T01:11:21.541Z,14.97
2023-05-02T01:13:57.582Z,15.30
2023-05-02T01:16:32.214Z,14.93
2023-05-02T01:19:09.703Z,15.20
2023-05-02T01:21:45.815Z,13.50
2023-05-02T01:24:29.278Z,14.83
2023-05-02T01:27:19.500Z,15.77
2023-05-02T01:29:57.224Z,14.67
2023-05-02T01:32:32.163Z,15.70
2023-05-02T01:35:09.053Z,16.67
2023-05-02T01:37:44.004Z,16.43
2023-05-02T01:40:21.738Z,14.70
2023-05-02T01:42:56.901Z,15.30
2023-05-02T01:45:33.818Z,14.40
2023-05-02T06:44:37.561Z,16.93
2023-05-02T06:47:12.134Z,16.27
2023-05-02T06:49:45.500Z,15.10
2023-05-02T06:55:06.357Z,17.13
2023-05-02T06:57:42.363Z,16.27
2023-05-02T07:00:18.749Z,15.07
2023-05-02T07:05:52.876Z,16.07
2023-05-02T07:08:27.564Z,15.20
2023-05-02T07:11:03.706Z,18.10
2023-05-02T07:13:36.895Z,15.30
2023-05-02T07:16:14.492Z,16.37
2023-05-02T07:18:48.488Z,16.67
2023-05-02T07:22:31.118Z,16.23
2023-05-02T07:28:10.413Z,16.30
2023-05-02T07:30:43.890Z,17.50
2023-05-02T07:33:21.241Z,18.57
2023-05-02T07:35:55.639Z,15.83
2023-05-02T07:38:29.507Z,17.90
2023-05-02T07:41:04.840Z,15.50
2023-05-02T07:43:39.713Z,15.27
2023-05-02T07:49:33.090Z,15.63
2023-05-02T07:52:07.017Z,16.07
2023-05-02T07:55:02.653Z,15.63
2023-05-02T07:57:45.244Z,14.97
2023-05-02T08:00:26.301Z,16.33
2023-05-02T08:03:01.071Z,15.67
2023-05-02T08:05:43.816Z,16.27
2023-05-02T08:08:22.211Z,15.30
2023-05-02T08:11:00.083Z,17.13
2023-05-02T08:13:39.076Z,16.40
2023-05-02T08:16:14.055Z,16.57
2023-05-02T08:18:48.370Z,16.97
2023-05-02T08:21:40.752Z,16.80
2023-05-02T08:24:17.833Z,16.67
2023-05-02T08:26:55.793Z,15.00
2023-05-02T08:29:29.688Z,16.30
2023-05-02T08:32:10.457Z,17.23
2023-05-02T08:34:45.220Z,17.97
2023-05-02T08:37:33.354Z,17.07
2023-05-02T08:40:12.086Z,16.80
2023-05-02T08:42:49.718Z,17.53
2023-05-02T08:45:28.014Z,17.20
2023-05-02T08:48:04.624Z,16.97
2023-05-02T08:50:42.914Z,17.90
2023-05-02T08:53:21.077Z,18.43
2023-05-02T08:55:55.656Z,19.23
2023-05-02T08:58:33.030Z,19.87
2023-05-02T09:01:18.543Z,22.23
2023-05-02T09:03:58.339Z,21.97
2023-05-02T09:06:34.035Z,18.70
2023-05-02T09:09:12.933Z,19.03
2023-05-02T09:11:51.927Z,18.20
2023-05-02T09:14:30.612Z,18.60
2023-05-02T09:17:11.463Z,18.80
2023-05-02T09:19:46.128Z,20.20
2023-05-02T09:22:36.202Z,18.20
2023-05-02T09:25:13.725Z,21.17
2023-05-02T09:28:03.754Z,18.17
2023-05-02T09:30:40.966Z,18.70
2023-05-02T09:33:16.974Z,23.30
2023-05-02T09:36:02.630Z,23.23
2023-05-02T09:38:42.230Z,25.53
2023-05-02T09:41:19.203Z,23.80
2023-05-02T09:44:03.545Z,22.37
2023-05-02T09:46:46.184Z,22.03
2023-05-02T09:49:23.279Z,21.67
2023-05-02T09:52:16.134Z,21.10
2023-05-02T09:54:52.853Z,21.13
2023-05-02T09:57:45.975Z,20.83
2023-05-02T10:00:23.791Z,20.47
2023-05-02T10:03:00.004Z,20.20
2023-05-02T10:05:38.287Z,21.13
2023-05-02T10:08:13.560Z,21.40
2023-05-02T10:10:50.883Z,20.77
2023-05-02T10:13:33.475Z,20.13
2023-05-02T10:16:10.338Z,22.10
2023-05-02T10:19:03.107Z,21.83
2023-05-02T10:21:39.261Z,23.33
2023-05-02T10:24:13.766Z,22.10
2023-05-02T10:26:50.858Z,21.60
2023-05-02T10:29:38.469Z,20.47
2023-05-02T10:32:20.540Z,20.77
2023-05-02T10:35:02.237Z,20.50
2023-05-02T10:37:49.369Z,17.87
2023-05-02T10:40:25.305Z,17.63
2023-05-02T10:43:08.138Z,17.70
2023-05-02T10:45:48.281Z,16.90
2023-05-02T10:48:26.857Z,18.07
2023-05-02T10:51:02.610Z,18.43
2023-05-02T10:53:43.100Z,18.13
2023-05-02T10:56:23.341Z,17.40
2023-05-02T10:59:33.810Z,16.87
2023-05-02T11:02:54.228Z,17.63
2023-05-02T11:05:30.101Z,16.70
2023-05-02T11:08:46.112Z,18.43
2023-05-02T11:11:47.687Z,16.70
2023-05-02T11:15:01.457Z,16.77
2023-05-02T11:18:09.998Z,16.87
2023-05-02T11:20:44.770Z,16.83
2023-05-02T11:23:29.265Z,16.80
2023-05-02T11:26:06.350Z,16.90
2023-05-02T11:28:57.172Z,16.67
2023-05-02T11:32:05.629Z,16.03
2023-05-02T11:34:53.967Z,17.07
2023-05-02T11:37:32.284Z,16.73
2023-05-02T11:40:26.386Z,17.47
2023-05-02T11:43:05.536Z,16.97
2023-05-02T11:45:43.932Z,16.63
2023-05-02T11:48:20.836Z,16.67
2023-05-02T11:51:01.111Z,16.60
2023-05-02T11:53:39.181Z,16.23
2023-05-02T11:56:12.985Z,16.53
2023-05-02T11:59:06.075Z,16.47
2023-05-02T12:01:45.057Z,16.50
2023-05-02T12:04:25.132Z,16.33
2023-05-02T12:07:10.210Z,16.67
2023-05-02T12:10:00.305Z,17.33
2023-05-02T12:12:37.875Z,19.03
2023-05-02T12:15:17.639Z,17.73
2023-05-02T12:17:59.350Z,18.43
2023-05-02T12:20:40.439Z,17.87
2023-05-02T12:23:28.272Z,18.97
2023-05-02T12:26:22.824Z,18.07
2023-05-02T12:29:01.403Z,18.27
2023-05-02T12:31:38.177Z,18.63
2023-05-02T12:34:15.784Z,17.40
2023-05-02T12:36:51.544Z,18.30
2023-05-02T12:39:39.912Z,18.07
2023-05-02T12:42:16.113Z,18.93
2023-05-02T12:44:54.296Z,19.33
2023-05-02T12:47:31.596Z,19.23
2023-05-02T12:50:07.560Z,19.53
2023-05-02T12:53:04.683Z,19.03
2023-05-02T12:55:44.892Z,19.57
2023-05-02T12:58:31.724Z,19.47
2023-05-02T13:01:08.563Z,22.23
2023-05-02T13:03:47.053Z,20.63
2023-05-02T13:06:28.082Z,20.43
2023-05-02T13:09:09.909Z,21.60
2023-05-02T13:11:46.480Z,20.97
2023-05-02T13:14:24.178Z,20.33
2023-05-02T13:17:02.553Z,21.03
2023-05-02T13:19:42.459Z,21.70
2023-05-02T13:22:25.643Z,22.23
2023-05-02T13:25:02.725Z,21.80
2023-05-02T13:27:40.613Z,21.90
2023-05-02T13:30:21.408Z,22.60
2023-05-02T13:32:57.538Z,22.23
2023-05-02T13:35:33.231Z,22.90
2023-05-02T13:38:13.294Z,21.60
2023-05-02T13:40:48.499Z,22.43
2023-05-02T13:43:28.858Z,24.03
2023-05-02T13:46:04.413Z,22.43
2023-05-02T13:48:41.686Z,21.63
2023-05-02T13:51:19.992Z,22.00
2023-05-02T13:54:00.625Z,25.43
2023-05-02T13:56:37.274Z,25.30
2023-05-02T13:59:15.710Z,25.90
2023-05-02T14:01:52.352Z,24.57
2023-05-02T14:04:29.590Z,25.40
2023-05-02T14:07:05.925Z,23.50
2023-05-02T14:09:43.081Z,23.43
2023-05-02T14:12:20.504Z,24.40
2023-05-02T14:14:57.535Z,22.93
2023-05-02T14:17:34.772Z,26.03
2023-05-02T14:20:09.928Z,25.90
2023-05-02T14:22:46.820Z,26.17
2023-05-02T14:25:24.602Z,25.63
2023-05-02T14:28:04.741Z,24.77
2023-05-02T14:30:42.479Z,25.47
2023-05-02T14:33:21.915Z,25.47
2023-05-02T14:36:11.249Z,25.40
2023-05-02T14:41:43.148Z,24.53
2023-05-02T14:44:19.604Z,25.13
2023-05-02T14:47:01.469Z,24.80
2023-05-02T14:49:40.692Z,25.67
2023-05-02T14:52:19.187Z,25.87
2023-05-02T14:54:56.505Z,25.97
2023-05-02T14:57:41.936Z,24.30
2023-05-02T15:00:27.484Z,24.73
2023-05-02T15:03:07.366Z,25.23
2023-05-02T15:05:43.368Z,24.37
2023-05-02T15:08:20.723Z,23.80
2023-05-02T15:10:56.393Z,25.70
2023-05-02T15:13:48.380Z,26.53
2023-05-02T15:16:24.876Z,27.47
2023-05-02T15:19:04.402Z,29.47
2023-05-02T15:21:41.604Z,29.97
2023-05-02T15:24:20.167Z,31.70
2023-05-02T15:26:55.710Z,31.33
2023-05-02T15:29:34.864Z,28.87
2023-05-02T15:32:20.082Z,24.87
2023-05-02T15:35:10.839Z,23.33
2023-05-02T15:37:49.410Z,25.20
2023-05-02T15:40:27.429Z,25.70
2023-05-02T15:43:04.564Z,24.93
2023-05-02T15:45:41.637Z,24.93
2023-05-02T15:48:21.825Z,25.00
2023-05-02T15:50:59.284Z,24.17
2023-05-02T15:53:38.511Z,25.20
2023-05-02T15:56:15.175Z,25.37
2023-05-02T15:58:51.279Z,25.60
2023-05-02T16:01:39.145Z,26.63
2023-05-02T16:04:13.052Z,26.13
2023-05-02T16:06:52.228Z,25.53
2023-05-02T16:09:36.063Z,25.47
2023-05-02T16:12:13.605Z,25.23
2023-05-02T16:14:47.971Z,25.60
2023-05-02T16:17:27.130Z,26.73
2023-05-02T16:20:03.576Z,25.13
2023-05-02T16:22:41.950Z,26.50
2023-05-02T16:25:19.392Z,25.30
2023-05-02T16:27:57.673Z,24.37
2023-05-02T16:30:35.159Z,24.90
2023-05-02T16:33:12.568Z,26.33
2023-05-02T16:35:48.174Z,25.70
2023-05-02T16:38:34.895Z,26.87
2023-05-02T16:41:21.979Z,25.00
2023-05-02T16:44:02.785Z,26.43
2023-05-02T16:46:48.904Z,26.50
2023-05-02T16:49:26.797Z,26.67
2023-05-02T16:52:04.673Z,26.83
2023-05-02T16:54:41.240Z,27.23
2023-05-02T16:57:21.254Z,25.77
2023-05-02T16:59:57.040Z,26.57
2023-05-02T17:02:31.370Z,26.83
2023-05-02T17:05:05.147Z,24.37
2023-05-02T17:07:41.970Z,26.47
2023-05-02T17:10:20.537Z,23.00
2023-05-02T17:13:00.129Z,24.93
2023-05-02T17:15:36.468Z,26.30
2023-05-02T17:18:13.422Z,25.87
2023-05-02T17:20:55.150Z,26.63
2023-05-02T17:23:32.171Z,26.33
2023-05-02T17:26:15.936Z,25.70
2023-05-02T17:28:52.875Z,26.80
2023-05-02T17:31:31.352Z,27.20
2023-05-02T17:34:06.241Z,28.00
2023-05-02T17:36:47.152Z,26.67
2023-05-02T17:39:24.374Z,26.17
2023-05-02T17:42:08.528Z,25.93
2023-05-02T17:44:42.292Z,28.23
2023-05-02T17:47:18.495Z,23.67
2023-05-02T17:49:57.857Z,27.67
2023-05-02T17:52:33.347Z,25.40
2023-05-02T17:55:08.244Z,28.23
2023-05-02T17:57:51.415Z,26.80
2023-05-02T18:00:27.954Z,26.50
2023-05-02T18:03:07.714Z,28.50
2023-05-02T18:05:49.363Z,29.13
2023-05-02T18:08:28.343Z,26.93
2023-05-02T18:11:06.836Z,28.20
2023-05-02T18:13:46.952Z,28.30
2023-05-02T18:16:26.871Z,27.97
2023-05-02T18:19:05.436Z,27.03
2023-05-02T18:21:40.540Z,27.03
2023-05-02T18:24:14.816Z,28.23
2023-05-02T18:26:48.960Z,27.90
2023-05-02T18:29:27.172Z,27.97
2023-05-02T18:32:03.313Z,27.53
2023-05-02T18:34:41.115Z,27.70
2023-05-02T18:37:17.003Z,29.23
2023-05-02T18:39:51.543Z,28.10
2023-05-02T18:42:26.756Z,27.87
2023-05-02T18:45:04.393Z,27.77
2023-05-02T18:47:39.783Z,27.57
2023-05-02T18:50:15.154Z,27.20
2023-05-02T18:52:52.539Z,27.83
2023-05-02T18:55:28.495Z,28.07
2023-05-02T18:58:05.827Z,28.57
2023-05-02T19:00:46.004Z,28.10
2023-05-02T19:03:21.817Z,28.20
2023-05-02T19:06:04.349Z,27.53
2023-05-02T19:08:39.666Z,26.33
2023-05-02T19:11:14.153Z,26.77
2023-05-02T19:13:52.490Z,25.80
2023-05-02T19:16:33.068Z,27.10
2023-05-02T19:19:10.135Z,26.73
2023-05-02T19:21:44.929Z,26.47
2023-05-02T19:24:21.521Z,26.80
2023-05-02T19:26:56.328Z,27.53
2023-05-02T19:29:33.098Z,24.27
2023-05-02T19:32:09.505Z,27.07
2023-05-02T19:34:49.842Z,25.90
2023-05-02T19:37:24.569Z,26.57
2023-05-02T19:40:00.785Z,27.83
2023-05-02T19:42:36.089Z,27.03
2023-05-02T19:45:15.662Z,27.07
2023-05-02T19:47:54.465Z,27.17
2023-05-02T19:50:31.172Z,27.03
2023-05-02T19:53:06.245Z,27.40
2023-05-02T19:55:47.986Z,26.97
2023-05-02T19:58:29.437Z,26.77
2023-05-02T20:01:09.509Z,27.53
2023-05-02T20:03:44.795Z,25.80
2023-05-02T20:06:20.671Z,26.93
2023-05-02T20:08:56.230Z,25.20
2023-05-02T20:11:32.658Z,25.57
2023-05-02T20:14:10.180Z,25.13
2023-05-02T20:16:48.449Z,26.43
2023-05-02T20:19:27.157Z,26.75
2023-05-02T20:22:03.426Z,26.00
2023-05-02T20:24:39.392Z,26.73
2023-05-02T20:27:21.591Z,26.50
2023-05-02T20:30:00.739Z,27.67
2023-05-02T20:32:34.200Z,26.33
2023-05-02T20:35:11.193Z,25.37
2023-05-02T20:37:48.084Z,26.10
2023-05-02T20:40:24.753Z,26.07
2023-05-02T20:43:13.735Z,25.20
2023-05-02T20:46:03.779Z,24.90
2023-05-02T20:48:42.382Z,25.80
2023-05-02T20:51:18.764Z,25.33
2023-05-02T20:53:52.468Z,24.63
2023-05-02T20:56:26.365Z,24.10
2023-05-02T20:59:01.386Z,26.33
2023-05-02T21:01:36.103Z,25.70
2023-05-02T21:04:13.138Z,26.17
2023-05-02T21:06:55.327Z,25.10
2023-05-02T21:09:33.018Z,25.23
2023-05-02T21:12:10.498Z,25.97
2023-05-02T21:14:49.326Z,26.03
2023-05-02T21:17:28.144Z,26.53
2023-05-02T21:20:02.100Z,26.67
2023-05-02T21:22:38.995Z,25.03
2023-05-02T21:25:20.827Z,26.17
2023-05-02T21:28:01.506Z,26.00
2023-05-02T21:30:38.572Z,26.53
2023-05-02T21:33:16.296Z,27.20
2023-05-02T21:35:53.683Z,26.03
2023-05-02T21:38:33.612Z,25.87
2023-05-02T21:41:11.538Z,27.17
2023-05-02T21:43:45.275Z,26.70
2023-05-02T21:46:25.004Z,28.53
2023-05-02T21:49:02.680Z,26.63
2023-05-02T21:51:37.309Z,26.87
2023-05-02T21:54:16.806Z,27.03
2023-05-02T21:56:53.355Z,26.37
2023-05-02T21:59:33.232Z,28.13
2023-05-02T22:02:08.250Z,29.60
2023-05-02T22:04:49.891Z,26.37
2023-05-02T22:07:29.433Z,26.47
2023-05-02T22:10:10.648Z,27.63
2023-05-02T22:12:46.927Z,27.83
2023-05-02T22:15:24.420Z,28.87
2023-05-02T22:18:00.348Z,29.20
2023-05-02T22:20:38.275Z,28.17
2023-05-02T22:23:18.438Z,27.57
2023-05-02T22:25:59.811Z,29.47
2023-05-02T22:28:34.713Z,29.00
2023-05-02T22:31:12.301Z,29.80
2023-05-02T22:36:44.724Z,29.57
2023-05-02T22:39:19.543Z,29.93
2023-05-02T22:41:54.777Z,30.70
2023-05-02T22:44:32.176Z,28.80
2023-05-02T22:47:12.197Z,28.40
2023-05-02T22:49:50.923Z,28.80
2023-05-02T22:52:28.681Z,26.83
2023-05-02T22:55:03.075Z,27.33
2023-05-02T22:57:41.139Z,27.87
2023-05-02T23:00:19.703Z,28.23
2023-05-02T23:03:02.933Z,27.37
2023-05-02T23:05:37.829Z,28.27
2023-05-02T23:08:12.996Z,27.67
2023-05-02T23:10:49.399Z,28.30
2023-05-02T23:13:28.086Z,27.70
2023-05-02T23:16:07.749Z,27.23
2023-05-02T23:18:42.250Z,28.70
2023-05-02T23:21:25.324Z,28.50
2023-05-02T23:24:04.144Z,27.80
2023-05-02T23:26:40.047Z,27.90
2023-05-02T23:29:21.512Z,27.73
2023-05-02T23:32:04.605Z,27.93
2023-05-02T23:34:45.226Z,25.87
2023-05-02T23:37:23.483Z,25.40
2023-05-02T23:40:02.116Z,23.97
2023-05-02T23:42:40.931Z,23.80
2023-05-02T23:45:23.187Z,21.67
2023-05-02T23:48:04.358Z,21.33
2023-05-02T23:50:42.109Z,21.93
2023-05-02T23:53:16.685Z,21.53
2023-05-02T23:55:52.570Z,21.93
2023-05-02T23:58:34.415Z,21.80
